KORF/ORF METAR and TAF weather

Enter ICAO airport designator
Station Type Date Time Source
KORF METAR 2019/12/16 05:51 UTC NOAA

KORF 160551Z 07008KT 10SM BKN095 09/04 A3018 RMK AO2 SLP218 T00890044 10094 20050 51005


Station Type Date Time Source
KORF Decoded METAR 2019/12/16 05:51 UTC NOAA

NORFOLK INTERNATIONAL AIRPORT , VA, United States (KORF) 36-54N 076-12W 14M
Dec 16, 2019 - 12:51 AM EST / 2019.12.16 0551 UTC
Wind: from the ENE (070 degrees) at 9 MPH (8 KT):0
Visibility: 10 mile(s):0
Sky conditions: mostly cloudy
Temperature: 48.0 F (8.9 C)
Dew Point: 39.9 F (4.4 C)
Relative Humidity: 73%
Pressure (altimeter): 30.18 in. Hg (1022 hPa)
Pressure tendency: 0.01 inches (0.5 hPa) higher than three hours ago
ob: KORF 160551Z 07008KT 10SM BKN095 09/04 A3018 RMK AO2 SLP218 T00890044 10094 20050 51005
cycle: 6

Station Type Date Time Source
KORF TAF 2019/12/16 06:22 UTC NOAA

TAF KORF 160520Z 1606/1706 VRB03KT P6SM BKN100
FM160900 10005KT P6SM SCT100
FM161400 20008KT P6SM SCT150

Example: see airport list